Time;durP1;ratioP1;P1;durP2;ratioP2;P2;SDS_P1;SDS_P2;PMS_P1;PMS_P2;Temp;Humidity;BMP_temperature;BMP_pressure;BME280_temperature;BME280_humidity;BME280_pressure;Samples;Min_cycle;Max_cycle;Signal;HPM_P1;HPM_P2
2022/01/30 00:01:47;;;;;;;;;;;23.30;29.40;;;;;;5121425;28;20026;-54
2022/01/30 00:04:13;;;;;;;;;;;23.30;29.40;;;;;;5108218;28;19927;-53
2022/01/30 00:06:39;;;;;;;;;;;23.30;29.50;;;;;;5121128;28;19923;-52
2022/01/30 00:09:08;;;;;;;;;;;23.30;29.40;;;;;;5121162;28;20618;-55
2022/01/30 00:11:36;;;;;;;;;;;23.30;29.50;;;;;;5123160;27;20371;-55
2022/01/30 00:14:04;;;;;;;;;;;23.30;29.40;;;;;;5122531;27;19927;-58
2022/01/30 00:16:34;;;;;;;;;;;23.10;29.70;;;;;;5125448;27;20014;-57
2022/01/30 00:21:49;;;;;;;;;;;23.30;29.60;;;;;;5124731;27;20294;-58
2022/01/30 00:24:23;;;;;;;;;;;23.30;29.50;;;;;;5125366;27;19923;-58
2022/01/30 00:26:50;;;;;;;;;;;23.30;29.50;;;;;;5130212;27;19929;-52
2022/01/30 00:29:16;;;;;;;;;;;23.20;29.60;;;;;;5122147;27;19923;-55
2022/01/30 00:31:42;;;;;;;;;;;23.20;29.80;;;;;;5109152;27;19930;-56
2022/01/30 00:34:08;;;;;;;;;;;23.30;29.60;;;;;;5124418;27;19924;-49
2022/01/30 00:36:34;;;;;;;;;;;23.20;29.70;;;;;;5124774;27;19946;-56
2022/01/30 00:39:00;;;;;;;;;;;23.30;29.70;;;;;;5130041;27;19928;-53
2022/01/30 00:41:25;;;;;;;;;;;23.30;29.60;;;;;;5124780;27;20446;-53
2022/01/30 00:43:51;;;;;;;;;;;23.30;29.60;;;;;;5124559;27;20187;-56
2022/01/30 00:46:17;;;;;;;;;;;23.30;29.70;;;;;;5129590;27;19933;-56
2022/01/30 00:48:43;;;;;;;;;;;23.30;29.80;;;;;;5120590;27;19928;-53
2022/01/30 00:51:09;;;;;;;;;;;23.30;29.90;;;;;;5128149;27;19923;-55
2022/01/30 00:53:35;;;;;;;;;;;23.30;29.90;;;;;;5124637;27;19927;-52
2022/01/30 00:56:00;;;;;;;;;;;23.30;29.90;;;;;;5124200;27;20363;-54
2022/01/30 00:58:26;;;;;;;;;;;23.30;30.00;;;;;;5129420;27;19976;-55
2022/01/30 01:00:52;;;;;;;;;;;23.30;30.00;;;;;;5124031;27;20310;-55
2022/01/30 01:03:18;;;;;;;;;;;23.20;30.10;;;;;;5124052;27;20562;-52
2022/01/30 01:05:44;;;;;;;;;;;23.20;30.20;;;;;;5127048;27;19935;-57
2022/01/30 01:08:15;;;;;;;;;;;23.30;30.10;;;;;;5121453;27;19923;-52
2022/01/30 01:23:50;;;;;;;;;;;23.20;30.60;;;;;;5121960;27;19971;-57
2022/01/30 01:26:16;;;;;;;;;;;23.30;30.60;;;;;;5102511;27;19943;-50
2022/01/30 01:28:42;;;;;;;;;;;23.30;30.70;;;;;;5128105;27;19923;-55
2022/01/30 01:31:08;;;;;;;;;;;23.30;30.70;;;;;;5123318;27;19923;-54
2022/01/30 01:33:58;;;;;;;;;;;23.30;30.70;;;;;;5128737;27;19935;-54
2022/01/30 01:36:19;;;;;;;;;;;23.30;30.70;;;;;;5127152;27;20267;-56
2022/01/30 01:38:45;;;;;;;;;;;23.30;30.80;;;;;;5123312;27;19972;-56
2022/01/30 01:41:11;;;;;;;;;;;23.30;30.70;;;;;;5128594;27;19938;-64
2022/01/30 01:43:37;;;;;;;;;;;23.30;30.70;;;;;;5120063;27;19924;-53
2022/01/30 01:46:04;;;;;;;;;;;23.00;31.20;;;;;;5121411;27;19927;-57
2022/01/30 01:48:35;;;;;;;;;;;23.20;31.00;;;;;;5128564;27;19931;-57
2022/01/30 01:51:14;;;;;;;;;;;23.20;30.90;;;;;;5123262;27;20442;-57
2022/01/30 01:53:40;;;;;;;;;;;23.20;30.90;;;;;;5106840;27;19923;-52
2022/01/30 01:56:06;;;;;;;;;;;23.20;31.10;;;;;;5110030;27;19985;-53
2022/01/30 01:58:32;;;;;;;;;;;23.20;31.10;;;;;;5122981;27;19930;-51
2022/01/30 02:00:59;;;;;;;;;;;23.30;31.00;;;;;;5122813;27;19972;-58
2022/01/30 02:03:26;;;;;;;;;;;23.20;31.20;;;;;;5124784;27;19927;-52
2022/01/30 02:05:58;;;;;;;;;;;23.20;31.20;;;;;;5122093;27;19930;-61
2022/01/30 02:11:13;;;;;;;;;;;23.20;31.30;;;;;;5105374;27;20393;-53
2022/01/30 02:26:58;;;;;;;;;;;23.30;31.50;;;;;;5127988;27;19923;-60
2022/01/30 02:29:24;;;;;;;;;;;23.30;31.30;;;;;;5122417;27;20323;-56
2022/01/30 02:31:50;;;;;;;;;;;23.20;31.40;;;;;;5126797;27;20428;-57
2022/01/30 02:34:16;;;;;;;;;;;23.30;31.40;;;;;;5123716;27;19927;-54
2022/01/30 02:36:45;;;;;;;;;;;23.30;31.20;;;;;;5121351;27;19930;-53
2022/01/30 02:39:10;;;;;;;;;;;23.30;31.20;;;;;;5105762;27;20380;-58
2022/01/30 02:41:38;;;;;;;;;;;23.30;31.30;;;;;;5120618;27;19937;-58
2022/01/30 02:44:13;;;;;;;;;;;23.30;31.20;;;;;;5122055;27;19929;-59
2022/01/30 02:46:43;;;;;;;;;;;23.30;31.20;;;;;;5109321;27;19930;-56
2022/01/30 02:49:41;;;;;;;;;;;23.30;31.20;;;;;;5104551;27;19930;-55
2022/01/30 02:52:01;;;;;;;;;;;23.10;31.30;;;;;;5120333;27;19927;-52
2022/01/30 02:54:27;;;;;;;;;;;23.20;31.10;;;;;;5127303;27;20026;-62
2022/01/30 02:56:53;;;;;;;;;;;23.20;30.90;;;;;;5101018;27;20305;-57
2022/01/30 02:59:19;;;;;;;;;;;23.10;31.10;;;;;;5119768;27;19923;-56
2022/01/30 03:01:44;;;;;;;;;;;23.30;30.80;;;;;;5126963;27;19927;-63
2022/01/30 03:04:10;;;;;;;;;;;23.30;30.80;;;;;;5121895;27;19923;-57
2022/01/30 03:06:36;;;;;;;;;;;23.20;30.80;;;;;;5127160;27;19923;-56
2022/01/30 03:09:03;;;;;;;;;;;23.30;30.60;;;;;;5121816;27;19923;-52
2022/01/30 03:11:29;;;;;;;;;;;23.10;30.80;;;;;;5121739;27;19938;-54
2022/01/30 03:13:54;;;;;;;;;;;23.30;30.60;;;;;;5126745;27;19936;-53
2022/01/30 03:16:23;;;;;;;;;;;23.30;30.50;;;;;;5118327;27;19996;-60
2022/01/30 03:18:52;;;;;;;;;;;23.30;30.50;;;;;;5120415;27;20347;-53
2022/01/30 03:21:18;;;;;;;;;;;23.20;30.70;;;;;;5126880;27;19977;-57
2022/01/30 03:23:44;;;;;;;;;;;23.30;30.60;;;;;;5121786;27;20543;-60
2022/01/30 03:26:10;;;;;;;;;;;23.30;30.50;;;;;;5122575;28;19923;-57
2022/01/30 03:28:39;;;;;;;;;;;23.30;30.60;;;;;;5126982;28;19946;-60
2022/01/30 03:31:07;;;;;;;;;;;23.20;30.70;;;;;;5121611;28;20014;-56
2022/01/30 03:33:33;;;;;;;;;;;23.20;30.80;;;;;;5124791;28;20010;-56
2022/01/30 03:35:59;;;;;;;;;;;23.20;30.70;;;;;;5118976;28;19956;-52
2022/01/30 03:38:25;;;;;;;;;;;23.30;30.70;;;;;;5120953;28;19924;-60
2022/01/30 03:40:51;;;;;;;;;;;23.30;30.70;;;;;;5126680;28;20000;-56
2022/01/30 03:43:17;;;;;;;;;;;23.20;30.90;;;;;;5121456;28;19924;-53
2022/01/30 03:45:43;;;;;;;;;;;23.30;30.70;;;;;;5121678;28;20684;-61
2022/01/30 03:48:09;;;;;;;;;;;23.30;30.70;;;;;;5130379;27;19980;-58
2022/01/30 03:50:35;;;;;;;;;;;23.10;31.00;;;;;;5125225;27;20275;-58
2022/01/30 03:53:01;;;;;;;;;;;23.10;30.90;;;;;;5127504;27;19923;-61
2022/01/30 03:55:26;;;;;;;;;;;23.20;30.90;;;;;;5123767;27;19984;-51
2022/01/30 03:57:52;;;;;;;;;;;23.10;30.80;;;;;;5106807;27;20430;-51
2022/01/30 04:00:18;;;;;;;;;;;23.30;30.60;;;;;;5130729;27;19931;-51
2022/01/30 04:02:44;;;;;;;;;;;23.20;30.50;;;;;;5125157;27;20152;-59
2022/01/30 04:05:10;;;;;;;;;;;23.30;30.40;;;;;;5105199;27;20618;-54
2022/01/30 04:07:36;;;;;;;;;;;23.30;30.40;;;;;;5130552;27;20218;-61
2022/01/30 04:10:05;;;;;;;;;;;23.30;30.20;;;;;;5105374;27;19950;-55
2022/01/30 04:12:31;;;;;;;;;;;22.80;30.80;;;;;;5106583;27;20065;-57
2022/01/30 04:14:57;;;;;;;;;;;23.00;30.40;;;;;;5126369;27;19923;-53
2022/01/30 04:17:22;;;;;;;;;;;23.20;30.20;;;;;;5124916;27;19930;-60
2022/01/30 04:19:48;;;;;;;;;;;23.10;30.20;;;;;;5130358;27;20362;-50
2022/01/30 04:22:14;;;;;;;;;;;22.80;30.50;;;;;;5124825;27;19927;-51
2022/01/30 04:24:40;;;;;;;;;;;23.00;30.20;;;;;;5124844;27;19927;-52
2022/01/30 04:27:05;;;;;;;;;;;23.10;30.00;;;;;;5130136;27;19996;-62
2022/01/30 04:29:31;;;;;;;;;;;23.10;30.00;;;;;;5121916;27;20472;-51
2022/01/30 04:31:57;;;;;;;;;;;23.10;30.10;;;;;;5123904;27;20018;-60
2022/01/30 04:34:24;;;;;;;;;;;23.30;29.80;;;;;;5128666;27;19923;-56
2022/01/30 04:37:02;;;;;;;;;;;23.20;29.80;;;;;;5124694;27;19927;-51
2022/01/30 04:51:58;;;;;;;;;;;23.10;29.80;;;;;;5129980;27;19927;-51
2022/01/30 04:53:26;;;;;;;;;;;23.20;29.40;;;;;;5124166;27;19931;-60
2022/01/30 05:04:39;;;;;;;;;;;23.10;29.20;;;;;;5059453;28;20403;-56
2022/01/30 05:09:31;;;;;;;;;;;23.00;29.10;;;;;;5128071;27;19976;-55
2022/01/30 05:11:57;;;;;;;;;;;23.20;28.90;;;;;;5123785;27;20370;-53
2022/01/30 05:14:26;;;;;;;;;;;23.20;28.80;;;;;;5128908;27;19928;-61
2022/01/30 05:16:52;;;;;;;;;;;23.20;28.70;;;;;;5125837;27;19923;-57
2022/01/30 05:19:20;;;;;;;;;;;23.30;28.50;;;;;;5123990;27;20390;-56
2022/01/30 05:21:46;;;;;;;;;;;23.30;28.50;;;;;;5129161;27;20006;-56
2022/01/30 05:24:12;;;;;;;;;;;23.20;28.60;;;;;;5121689;27;20405;-54
2022/01/30 05:26:40;;;;;;;;;;;23.30;28.50;;;;;;5120949;27;19935;-61
2022/01/30 05:29:06;;;;;;;;;;;23.20;28.50;;;;;;5109972;27;19937;-51
2022/01/30 05:31:32;;;;;;;;;;;23.20;28.50;;;;;;5123731;27;19927;-53
2022/01/30 05:33:58;;;;;;;;;;;23.20;28.50;;;;;;5123489;27;19929;-59
2022/01/30 05:36:24;;;;;;;;;;;23.20;28.40;;;;;;5128741;27;19967;-55
2022/01/30 05:38:50;;;;;;;;;;;23.00;28.60;;;;;;5123451;27;19948;-54
2022/01/30 05:41:16;;;;;;;;;;;23.20;28.30;;;;;;5128788;27;19972;-62
2022/01/30 05:43:43;;;;;;;;;;;23.20;28.40;;;;;;5101815;27;19931;-57
2022/01/30 05:46:15;;;;;;;;;;;23.10;28.40;;;;;;5121295;27;19929;-54
2022/01/30 05:48:41;;;;;;;;;;;23.10;28.30;;;;;;5111071;27;19923;-53
2022/01/30 05:51:07;;;;;;;;;;;23.10;28.30;;;;;;5123161;27;19924;-58
2022/01/30 05:53:33;;;;;;;;;;;23.30;28.20;;;;;;5123369;27;20175;-52
2022/01/30 05:55:58;;;;;;;;;;;23.10;28.40;;;;;;5128637;27;20348;-52
2022/01/30 05:58:24;;;;;;;;;;;23.20;28.30;;;;;;5123186;27;19946;-52
2022/01/30 06:00:50;;;;;;;;;;;23.20;28.40;;;;;;5126803;27;19977;-56
2022/01/30 06:03:16;;;;;;;;;;;23.30;28.30;;;;;;5120111;27;19927;-60
2022/01/30 06:05:45;;;;;;;;;;;23.20;28.40;;;;;;5121661;27;20410;-56
2022/01/30 06:08:12;;;;;;;;;;;23.20;28.40;;;;;;5128196;27;19927;-53
2022/01/30 06:10:38;;;;;;;;;;;23.20;28.40;;;;;;5121727;27;19931;-52
2022/01/30 06:13:04;;;;;;;;;;;23.20;28.30;;;;;;5122678;27;20391;-55
2022/01/30 06:15:30;;;;;;;;;;;23.30;28.30;;;;;;5128145;27;19923;-55
2022/01/30 06:17:55;;;;;;;;;;;23.20;28.20;;;;;;5122736;27;19923;-55
2022/01/30 06:20:21;;;;;;;;;;;23.20;28.20;;;;;;5120998;27;19923;-58
2022/01/30 06:22:47;;;;;;;;;;;23.30;28.10;;;;;;5125114;27;19988;-57
2022/01/30 06:25:13;;;;;;;;;;;23.20;28.20;;;;;;5122123;27;19930;-51
2022/01/30 06:27:38;;;;;;;;;;;23.20;28.20;;;;;;5127891;27;19923;-53
2022/01/30 06:30:05;;;;;;;;;;;23.20;28.00;;;;;;5122405;27;19980;-57
2022/01/30 06:32:30;;;;;;;;;;;23.20;27.80;;;;;;5122612;27;19927;-55
2022/01/30 06:34:56;;;;;;;;;;;23.30;27.70;;;;;;5128103;27;20363;-59
2022/01/30 06:37:22;;;;;;;;;;;23.30;27.60;;;;;;5101358;27;20364;-54
2022/01/30 06:39:48;;;;;;;;;;;23.30;27.50;;;;;;5118605;27;19931;-57
2022/01/30 06:42:13;;;;;;;;;;;23.30;27.50;;;;;;5126174;27;19930;-59
2022/01/30 06:44:39;;;;;;;;;;;23.20;27.40;;;;;;5122015;27;20276;-51
2022/01/30 06:47:05;;;;;;;;;;;23.10;27.40;;;;;;5127599;27;19974;-54
2022/01/30 06:49:31;;;;;;;;;;;23.10;27.40;;;;;;5122032;27;19928;-56
2022/01/30 06:51:57;;;;;;;;;;;23.20;27.30;;;;;;5121995;27;19929;-55
2022/01/30 06:54:23;;;;;;;;;;;23.20;27.10;;;;;;5109136;27;19930;-52
2022/01/30 06:56:48;;;;;;;;;;;23.20;27.20;;;;;;5120071;27;19975;-51
2022/01/30 06:59:14;;;;;;;;;;;23.30;27.00;;;;;;5119320;27;20386;-52
2022/01/30 07:01:40;;;;;;;;;;;23.30;27.00;;;;;;5126394;27;20328;-56
2022/01/30 07:04:06;;;;;;;;;;;23.30;26.90;;;;;;5121976;27;19931;-57
2022/01/30 07:06:32;;;;;;;;;;;23.30;26.90;;;;;;5127187;27;19923;-56
2022/01/30 07:08:58;;;;;;;;;;;23.30;26.90;;;;;;5121680;27;19930;-52
2022/01/30 07:11:23;;;;;;;;;;;23.30;26.90;;;;;;5121625;27;20367;-60
2022/01/30 07:13:49;;;;;;;;;;;23.30;26.90;;;;;;5127022;27;20295;-58
2022/01/30 07:16:15;;;;;;;;;;;23.30;26.80;;;;;;5118770;27;19923;-56
2022/01/30 07:18:41;;;;;;;;;;;23.30;26.80;;;;;;5119627;27;19934;-57
2022/01/30 07:21:09;;;;;;;;;;;23.20;26.80;;;;;;5126469;27;19932;-51
2022/01/30 07:23:37;;;;;;;;;;;23.30;26.80;;;;;;5121685;27;20293;-55
2022/01/30 07:26:03;;;;;;;;;;;23.20;26.70;;;;;;5125382;28;19930;-58
2022/01/30 07:28:29;;;;;;;;;;;23.30;26.70;;;;;;5123970;28;19924;-60
2022/01/30 07:30:55;;;;;;;;;;;23.00;26.90;;;;;;5121492;28;20072;-56
2022/01/30 07:33:21;;;;;;;;;;;22.90;27.00;;;;;;5125886;28;20024;-56
2022/01/30 07:35:47;;;;;;;;;;;23.00;26.90;;;;;;5118325;28;19947;-53
2022/01/30 07:38:13;;;;;;;;;;;23.10;26.80;;;;;;5120337;28;19971;-54
2022/01/30 07:40:39;;;;;;;;;;;23.10;26.90;;;;;;5126706;28;19931;-52
2022/01/30 07:43:05;;;;;;;;;;;23.00;26.90;;;;;;5103109;28;19984;-51
2022/01/30 07:45:30;;;;;;;;;;;23.20;26.80;;;;;;5122651;28;19931;-57
2022/01/30 07:47:56;;;;;;;;;;;23.30;26.70;;;;;;5126188;28;19930;-63
2022/01/30 07:50:22;;;;;;;;;;;23.20;26.80;;;;;;5121405;28;20365;-52
2022/01/30 07:52:48;;;;;;;;;;;23.10;27.00;;;;;;5124271;28;19938;-56
2022/01/30 07:55:14;;;;;;;;;;;23.20;26.80;;;;;;5118882;28;20549;-54
2022/01/30 07:57:41;;;;;;;;;;;23.20;26.90;;;;;;5121100;28;20037;-57
2022/01/30 08:00:07;;;;;;;;;;;23.20;26.80;;;;;;5126808;28;19930;-55
2022/01/30 08:02:33;;;;;;;;;;;23.20;26.80;;;;;;5121419;28;20382;-53
2022/01/30 08:04:59;;;;;;;;;;;23.30;26.70;;;;;;5121374;28;19927;-54
2022/01/30 08:07:26;;;;;;;;;;;23.30;26.70;;;;;;5126638;28;20439;-56
2022/01/30 08:09:52;;;;;;;;;;;23.30;26.60;;;;;;5120711;28;19940;-55
2022/01/30 08:12:19;;;;;;;;;;;23.30;26.50;;;;;;5122884;28;20387;-60
2022/01/30 08:14:45;;;;;;;;;;;23.30;26.50;;;;;;5119904;28;20378;-56
2022/01/30 08:17:18;;;;;;;;;;;23.10;26.50;;;;;;5121243;28;19941;-53
2022/01/30 08:19:45;;;;;;;;;;;23.20;26.40;;;;;;5107837;28;20298;-56
2022/01/30 08:22:11;;;;;;;;;;;23.20;26.40;;;;;;5121098;28;19930;-56
2022/01/30 08:24:38;;;;;;;;;;;23.30;26.30;;;;;;5121213;28;19980;-55
2022/01/30 08:27:04;;;;;;;;;;;23.30;26.20;;;;;;5126706;28;19924;-52
2022/01/30 08:29:30;;;;;;;;;;;23.30;26.10;;;;;;5118851;28;19976;-54
2022/01/30 08:31:57;;;;;;;;;;;23.20;26.10;;;;;;5120295;28;19924;-56
2022/01/30 08:34:23;;;;;;;;;;;23.30;26.00;;;;;;5126642;27;19923;-58
2022/01/30 08:36:49;;;;;;;;;;;23.30;26.00;;;;;;5124690;27;19923;-53
2022/01/30 08:39:14;;;;;;;;;;;23.30;25.90;;;;;;5130017;27;19931;-51
2022/01/30 08:41:40;;;;;;;;;;;23.20;25.90;;;;;;5124663;27;19981;-57
2022/01/30 08:44:06;;;;;;;;;;;23.20;25.90;;;;;;5124790;27;19923;-55
2022/01/30 08:46:32;;;;;;;;;;;23.10;25.90;;;;;;5130110;27;19928;-54
2022/01/30 08:48:57;;;;;;;;;;;23.20;25.80;;;;;;5102152;27;19924;-57
2022/01/30 08:51:23;;;;;;;;;;;23.20;25.60;;;;;;5122869;27;20068;-57
2022/01/30 08:53:49;;;;;;;;;;;23.20;25.60;;;;;;5111310;27;19980;-53
2022/01/30 08:56:15;;;;;;;;;;;23.30;25.50;;;;;;5124344;27;19931;-51
2022/01/30 08:58:40;;;;;;;;;;;23.30;25.30;;;;;;5129733;27;19927;-61
2022/01/30 09:01:08;;;;;;;;;;;23.20;25.40;;;;;;5124335;27;19935;-53
2022/01/30 09:03:34;;;;;;;;;;;23.10;25.40;;;;;;5124195;27;19928;-54
2022/01/30 09:06:00;;;;;;;;;;;23.10;25.40;;;;;;5128591;27;19988;-51
2022/01/30 09:08:25;;;;;;;;;;;23.10;25.40;;;;;;5101245;27;19924;-54
2022/01/30 09:10:51;;;;;;;;;;;23.10;25.40;;;;;;5122958;27;20004;-53
2022/01/30 09:13:17;;;;;;;;;;;23.20;25.30;;;;;;5129599;27;20150;-54
2022/01/30 09:15:43;;;;;;;;;;;23.30;25.20;;;;;;5124157;27;19935;-52
2022/01/30 09:18:10;;;;;;;;;;;23.20;25.20;;;;;;5129526;27;19923;-49
2022/01/30 09:20:39;;;;;;;;;;;23.30;25.10;;;;;;5123797;27;19933;-55
2022/01/30 09:23:05;;;;;;;;;;;23.30;25.10;;;;;;5123738;27;19932;-54
2022/01/30 09:25:30;;;;;;;;;;;23.30;25.00;;;;;;5126297;27;19923;-55
2022/01/30 09:27:56;;;;;;;;;;;23.30;24.90;;;;;;5121154;27;19927;-55
2022/01/30 09:30:22;;;;;;;;;;;23.20;24.80;;;;;;5122845;27;20449;-52
2022/01/30 09:32:48;;;;;;;;;;;23.20;24.80;;;;;;5129293;27;19929;-53
2022/01/30 09:35:14;;;;;;;;;;;23.30;24.70;;;;;;5123629;27;19924;-60
2022/01/30 09:37:40;;;;;;;;;;;23.30;24.70;;;;;;5127004;27;19930;-58
2022/01/30 09:40:06;;;;;;;;;;;23.20;24.70;;;;;;5125712;27;19923;-57
2022/01/30 09:42:32;;;;;;;;;;;23.20;24.90;;;;;;5122531;27;20345;-54
2022/01/30 09:45:00;;;;;;;;;;;23.20;24.80;;;;;;5124706;27;19970;-55
2022/01/30 09:47:26;;;;;;;;;;;23.30;24.80;;;;;;5122003;27;19976;-62
2022/01/30 09:49:52;;;;;;;;;;;23.30;24.80;;;;;;5104574;27;19927;-55
2022/01/30 09:52:18;;;;;;;;;;;23.00;25.10;;;;;;5128565;27;20325;-56
2022/01/30 09:54:44;;;;;;;;;;;23.20;25.10;;;;;;5123145;27;19949;-53
2022/01/30 09:57:10;;;;;;;;;;;23.20;25.00;;;;;;5123025;27;19928;-53
2022/01/30 09:59:36;;;;;;;;;;;23.20;25.10;;;;;;5128338;27;19923;-55
2022/01/30 10:02:05;;;;;;;;;;;23.20;25.10;;;;;;5120697;27;19923;-53
2022/01/30 10:04:31;;;;;;;;;;;23.30;25.00;;;;;;5125955;27;19976;-55
2022/01/30 10:07:03;;;;;;;;;;;23.30;25.00;;;;;;5122048;27;19927;-54
2022/01/30 10:09:32;;;;;;;;;;;23.30;24.80;;;;;;5123239;27;20378;-60
2022/01/30 10:12:19;;;;;;;;;;;23.20;24.80;;;;;;5128246;27;20035;-51
2022/01/30 10:14:47;;;;;;;;;;;23.10;24.80;;;;;;5122615;27;20332;-54
2022/01/30 10:17:30;;;;;;;;;;;23.20;24.60;;;;;;5122583;27;19970;-54
2022/01/30 10:20:15;;;;;;;;;;;23.20;24.50;;;;;;5127028;27;19923;-57
2022/01/30 10:22:54;;;;;;;;;;;23.30;24.50;;;;;;5121535;27;19923;-58
2022/01/30 10:25:20;;;;;;;;;;;23.30;24.40;;;;;;5121800;27;19923;-55
2022/01/30 10:27:46;;;;;;;;;;;23.20;24.40;;;;;;5109723;27;19924;-55
2022/01/30 10:30:12;;;;;;;;;;;23.20;24.40;;;;;;5122418;27;19941;-54
2022/01/30 10:32:37;;;;;;;;;;;23.20;24.50;;;;;;5122354;27;19931;-61
2022/01/30 10:35:04;;;;;;;;;;;23.20;24.30;;;;;;5127784;27;19927;-55
2022/01/30 10:37:30;;;;;;;;;;;23.30;24.10;;;;;;5122265;27;19931;-58
2022/01/30 10:39:56;;;;;;;;;;;23.20;24.10;;;;;;5118805;27;20444;-52
2022/01/30 10:42:39;;;;;;;;;;;23.20;24.00;;;;;;5125282;27;19927;-58
2022/01/30 10:45:14;;;;;;;;;;;23.30;23.90;;;;;;5121928;27;20395;-54
2022/01/30 10:47:40;;;;;;;;;;;23.20;23.70;;;;;;5121924;27;20582;-56
2022/01/30 10:50:12;;;;;;;;;;;23.20;23.60;;;;;;5127742;27;19970;-52
2022/01/30 10:52:58;;;;;;;;;;;23.20;23.50;;;;;;5121910;27;20318;-53
2022/01/30 10:55:32;;;;;;;;;;;23.30;23.40;;;;;;5121978;27;19933;-53
2022/01/30 10:57:59;;;;;;;;;;;23.20;23.50;;;;;;5124209;27;20287;-53
2022/01/30 11:00:35;;;;;;;;;;;23.30;23.40;;;;;;5119512;27;19927;-55
2022/01/30 11:03:00;;;;;;;;;;;23.30;23.40;;;;;;5121286;27;19946;-51
2022/01/30 11:05:26;;;;;;;;;;;23.30;23.30;;;;;;5109073;27;19927;-53
2022/01/30 11:07:52;;;;;;;;;;;23.20;23.40;;;;;;5121881;27;19927;-56
2022/01/30 11:10:23;;;;;;;;;;;23.20;23.30;;;;;;5127126;27;20045;-53
2022/01/30 11:15:54;;;;;;;;;;;23.30;23.20;;;;;;5102606;27;19980;-52
2022/01/30 11:18:20;;;;;;;;;;;23.30;23.20;;;;;;5104968;28;19971;-60
2022/01/30 11:20:46;;;;;;;;;;;23.20;23.30;;;;;;5105241;27;20018;-56
2022/01/30 11:23:12;;;;;;;;;;;23.00;23.50;;;;;;5121524;27;19923;-57
2022/01/30 11:25:38;;;;;;;;;;;23.10;23.30;;;;;;5127208;27;20401;-57
2022/01/30 11:28:05;;;;;;;;;;;23.20;23.30;;;;;;5121410;27;19924;-51
2022/01/30 11:30:31;;;;;;;;;;;23.10;23.40;;;;;;5121409;28;19931;-56
2022/01/30 11:32:57;;;;;;;;;;;23.20;23.40;;;;;;5126767;28;19928;-53
2022/01/30 11:35:23;;;;;;;;;;;23.30;23.40;;;;;;5100280;28;19924;-53
2022/01/30 11:37:48;;;;;;;;;;;23.30;23.30;;;;;;5119391;28;19927;-58
2022/01/30 11:40:15;;;;;;;;;;;23.30;23.40;;;;;;5126694;28;20271;-61
2022/01/30 11:42:44;;;;;;;;;;;23.20;23.50;;;;;;5121414;28;19933;-58
2022/01/30 11:45:17;;;;;;;;;;;23.20;23.50;;;;;;5123688;28;20370;-54
2022/01/30 11:47:43;;;;;;;;;;;23.20;23.30;;;;;;5121519;28;19924;-61
2022/01/30 11:50:09;;;;;;;;;;;23.30;23.30;;;;;;5121688;28;19930;-56
2022/01/30 11:52:48;;;;;;;;;;;23.10;23.30;;;;;;5125977;28;20351;-56
2022/01/30 11:55:32;;;;;;;;;;;23.20;23.10;;;;;;5100053;28;19927;-55
2022/01/30 11:57:58;;;;;;;;;;;23.30;23.00;;;;;;5120608;28;20034;-59
2022/01/30 12:00:37;;;;;;;;;;;23.30;22.90;;;;;;5126881;28;19930;-56
2022/01/30 12:03:22;;;;;;;;;;;23.30;22.80;;;;;;5121446;28;19930;-57
2022/01/30 12:05:48;;;;;;;;;;;23.30;22.80;;;;;;5121227;28;19925;-55
2022/01/30 12:08:33;;;;;;;;;;;23.30;22.70;;;;;;5128546;27;19930;-53
2022/01/30 12:10:58;;;;;;;;;;;23.30;22.80;;;;;;5124959;27;20011;-54
2022/01/30 12:13:43;;;;;;;;;;;23.20;22.80;;;;;;5121896;27;19937;-53
2022/01/30 12:16:29;;;;;;;;;;;23.30;22.70;;;;;;5129554;27;19923;-61
2022/01/30 12:18:55;;;;;;;;;;;23.20;22.70;;;;;;5130325;27;19923;-54
2022/01/30 12:21:21;;;;;;;;;;;23.20;22.80;;;;;;5125102;27;20405;-52
2022/01/30 12:23:46;;;;;;;;;;;23.20;22.80;;;;;;5112045;27;20279;-53
2022/01/30 12:26:14;;;;;;;;;;;23.30;22.70;;;;;;5124794;27;19923;-54
2022/01/30 12:28:40;;;;;;;;;;;23.20;22.70;;;;;;5124544;27;20020;-56
2022/01/30 12:31:25;;;;;;;;;;;23.20;22.70;;;;;;5126696;27;20413;-53
2022/01/30 12:33:58;;;;;;;;;;;23.30;22.70;;;;;;5104642;27;19930;-52
2022/01/30 12:36:23;;;;;;;;;;;23.30;22.60;;;;;;5124609;27;20373;-55
2022/01/30 12:38:53;;;;;;;;;;;23.30;22.50;;;;;;5130121;27;19928;-47
2022/01/30 12:41:19;;;;;;;;;;;23.10;22.60;;;;;;5124625;27;20368;-55
2022/01/30 12:43:45;;;;;;;;;;;23.20;22.60;;;;;;5124610;27;20010;-56
2022/01/30 12:46:11;;;;;;;;;;;23.30;22.50;;;;;;5130004;27;19927;-53
2022/01/30 12:48:37;;;;;;;;;;;23.30;22.40;;;;;;5104326;27;19927;-54
2022/01/30 12:51:07;;;;;;;;;;;23.30;22.40;;;;;;5126839;27;19984;-58
2022/01/30 12:53:35;;;;;;;;;;;23.20;22.40;;;;;;5123854;27;20010;-52
2022/01/30 12:56:01;;;;;;;;;;;23.10;22.40;;;;;;5124448;27;19975;-54
2022/01/30 12:58:28;;;;;;;;;;;23.20;22.30;;;;;;5129746;27;19923;-52
2022/01/30 13:01:16;;;;;;;;;;;23.30;22.10;;;;;;5105976;27;19948;-59
2022/01/30 13:03:42;;;;;;;;;;;23.30;22.10;;;;;;5124209;27;19923;-57
2022/01/30 13:06:08;;;;;;;;;;;23.20;22.00;;;;;;5129408;27;20378;-53
2022/01/30 13:08:44;;;;;;;;;;;23.30;22.00;;;;;;5120664;27;19938;-57
2022/01/30 13:11:13;;;;;;;;;;;23.20;22.00;;;;;;5103904;27;20401;-57
2022/01/30 13:13:56;;;;;;;;;;;23.20;22.00;;;;;;5129430;27;19927;-56
2022/01/30 13:16:41;;;;;;;;;;;23.30;22.00;;;;;;5124069;27;19930;-61
2022/01/30 13:19:13;;;;;;;;;;;23.20;21.90;;;;;;5123656;27;20022;-55
2022/01/30 13:21:40;;;;;;;;;;;23.00;22.10;;;;;;5129256;27;19923;-54
2022/01/30 13:24:07;;;;;;;;;;;23.10;22.10;;;;;;5105409;27;19924;-55
2022/01/30 13:26:40;;;;;;;;;;;23.20;22.10;;;;;;5100511;27;19928;-54
2022/01/30 13:29:06;;;;;;;;;;;23.20;22.00;;;;;;5127133;27;20014;-52
2022/01/30 13:31:32;;;;;;;;;;;23.20;21.90;;;;;;5123618;27;20302;-54
2022/01/30 13:34:08;;;;;;;;;;;23.20;21.80;;;;;;5123719;27;19972;-55
2022/01/30 13:36:34;;;;;;;;;;;23.20;21.80;;;;;;5129011;27;19932;-50
2022/01/30 13:39:05;;;;;;;;;;;23.30;21.60;;;;;;5123478;27;19923;-53
2022/01/30 13:41:33;;;;;;;;;;;23.20;21.70;;;;;;5127217;27;19927;-57
2022/01/30 13:43:59;;;;;;;;;;;23.30;21.60;;;;;;5125016;27;19935;-57
2022/01/30 13:49:10;;;;;;;;;;;23.10;21.80;;;;;;5127957;27;20009;-54
2022/01/30 13:51:35;;;;;;;;;;;23.20;21.70;;;;;;5123254;27;20370;-61
2022/01/30 13:54:05;;;;;;;;;;;23.20;21.70;;;;;;5104457;27;19927;-56
2022/01/30 13:56:31;;;;;;;;;;;23.20;21.80;;;;;;5128644;27;19969;-53
2022/01/30 13:58:56;;;;;;;;;;;23.30;21.70;;;;;;5123196;27;19924;-53
2022/01/30 14:01:25;;;;;;;;;;;23.30;21.70;;;;;;5122977;27;19927;-58
2022/01/30 14:04:01;;;;;;;;;;;23.30;21.60;;;;;;5125091;27;19927;-53
2022/01/30 14:06:27;;;;;;;;;;;23.20;21.80;;;;;;5085976;27;19923;-54
2022/01/30 14:08:53;;;;;;;;;;;23.30;21.70;;;;;;5123089;27;20563;-59
2022/01/30 14:11:32;;;;;;;;;;;23.20;21.70;;;;;;5128145;27;19940;-56
2022/01/30 14:14:05;;;;;;;;;;;23.20;21.70;;;;;;5122886;27;19939;-59
2022/01/30 14:16:35;;;;;;;;;;;23.20;21.60;;;;;;5122844;27;20932;-49
2022/01/30 14:19:00;;;;;;;;;;;23.20;21.60;;;;;;5128222;27;19923;-56
2022/01/30 14:21:29;;;;;;;;;;;23.20;21.50;;;;;;5120512;27;19947;-53
2022/01/30 14:23:55;;;;;;;;;;;23.30;21.40;;;;;;5107829;27;20378;-53
2022/01/30 14:26:21;;;;;;;;;;;23.30;21.40;;;;;;5122060;27;19935;-51
2022/01/30 14:28:47;;;;;;;;;;;23.30;21.40;;;;;;5122748;27;20810;-51
2022/01/30 14:31:19;;;;;;;;;;;23.30;21.40;;;;;;5127196;27;19977;-52
2022/01/30 14:33:45;;;;;;;;;;;23.30;21.40;;;;;;5122523;27;19923;-53
2022/01/30 14:36:11;;;;;;;;;;;23.30;21.50;;;;;;5122463;27;19927;-60
2022/01/30 14:38:43;;;;;;;;;;;23.30;21.60;;;;;;5127808;27;19928;-55
2022/01/30 14:41:09;;;;;;;;;;;23.30;21.50;;;;;;5118933;27;19930;-55
2022/01/30 14:43:35;;;;;;;;;;;23.30;21.30;;;;;;5120942;27;20291;-56
2022/01/30 14:46:01;;;;;;;;;;;23.30;21.30;;;;;;5127476;27;19923;-54
2022/01/30 14:48:27;;;;;;;;;;;23.30;21.20;;;;;;5122315;27;20366;-60
2022/01/30 14:50:52;;;;;;;;;;;23.30;21.20;;;;;;5127628;27;20344;-53
2022/01/30 14:53:18;;;;;;;;;;;23.30;21.20;;;;;;5122205;27;19946;-56
2022/01/30 14:55:44;;;;;;;;;;;23.20;21.00;;;;;;5122101;27;19976;-55
2022/01/30 14:58:12;;;;;;;;;;;23.30;20.90;;;;;;5125904;27;19941;-63
2022/01/30 15:00:38;;;;;;;;;;;23.20;21.00;;;;;;5119184;27;19927;-56
2022/01/30 15:03:04;;;;;;;;;;;23.10;21.10;;;;;;5102586;27;20140;-55
2022/01/30 15:05:30;;;;;;;;;;;23.30;21.00;;;;;;5127489;27;19927;-58
2022/01/30 15:07:56;;;;;;;;;;;23.10;21.10;;;;;;5122210;27;20394;-58
2022/01/30 15:10:25;;;;;;;;;;;23.30;21.10;;;;;;5127431;27;20291;-53
2022/01/30 15:12:51;;;;;;;;;;;23.30;21.10;;;;;;5121876;27;19934;-58
2022/01/30 15:15:16;;;;;;;;;;;23.30;21.10;;;;;;5122031;27;20081;-54
2022/01/30 15:17:42;;;;;;;;;;;23.20;21.20;;;;;;5124411;27;20295;-57
2022/01/30 15:20:09;;;;;;;;;;;23.20;21.20;;;;;;5119577;27;19971;-52